Time;durP1;ratioP1;P1;durP2;ratioP2;P2;SDS_P1;SDS_P2;PMS_P1;PMS_P2;Temp;Humidity;BMP_temperature;BMP_pressure;BME280_temperature;BME280_humidity;BME280_pressure;Samples;Min_cycle;Max_cycle;Signal;HPM_P1;HPM_P2
2023/10/06 00:01:31;;;;;;;14.00;11.60;;;12.80;99.90;;;;;;5092127;28;20412;-71
2023/10/06 00:03:59;;;;;;;17.47;11.30;;;12.80;99.90;;;;;;5087670;28;20458;-71
2023/10/06 00:06:27;;;;;;;17.23;10.23;;;12.80;99.90;;;;;;5083329;28;20448;-72
2023/10/06 00:08:55;;;;;;;14.83;11.00;;;12.70;99.90;;;;;;5081134;28;20499;-72
2023/10/06 00:11:29;;;;;;;13.47;11.43;;;12.70;99.90;;;;;;5079820;28;20410;-71
2023/10/06 00:14:01;;;;;;;18.77;10.73;;;12.70;99.90;;;;;;5082117;28;20459;-72
2023/10/06 00:16:34;;;;;;;13.50;10.83;;;12.70;99.90;;;;;;5090718;28;20448;-73
2023/10/06 00:19:20;;;;;;;13.57;9.53;;;12.70;99.90;;;;;;5086194;28;20420;-71
2023/10/06 00:21:53;;;;;;;11.90;9.20;;;12.70;99.90;;;;;;5082653;28;20446;-71
2023/10/06 00:24:25;;;;;;;10.77;9.67;;;12.70;99.90;;;;;;5079216;28;20420;-72
2023/10/06 00:26:52;;;;;;;10.37;9.20;;;12.60;99.90;;;;;;5060589;28;20444;-72
2023/10/06 00:29:20;;;;;;;13.30;11.03;;;12.60;99.90;;;;;;5086134;28;20454;-74
2023/10/06 00:31:47;;;;;;;11.87;10.30;;;12.50;99.90;;;;;;5065483;28;20432;-72
2023/10/06 00:34:19;;;;;;;12.63;9.40;;;12.60;99.90;;;;;;5083770;28;20540;-72
2023/10/06 00:36:51;;;;;;;14.43;9.60;;;12.60;99.90;;;;;;5090933;28;20974;-71
2023/10/06 00:39:18;;;;;;;12.00;10.07;;;12.60;99.90;;;;;;5090756;28;20407;-72
2023/10/06 00:41:44;;;;;;;9.83;8.83;;;12.70;99.90;;;;;;5081608;28;20514;-72
2023/10/06 00:44:10;;;;;;;15.00;9.40;;;12.70;99.90;;;;;;5090847;28;20503;-74
2023/10/06 00:46:36;;;;;;;14.63;10.27;;;12.70;99.90;;;;;;5080450;28;20194;-71
2023/10/06 00:49:04;;;;;;;16.67;10.50;;;12.80;99.90;;;;;;5078282;28;20471;-72
2023/10/06 00:51:30;;;;;;;12.57;8.87;;;12.80;99.90;;;;;;5079849;28;20808;-73
2023/10/06 00:53:58;;;;;;;10.60;8.73;;;12.80;99.90;;;;;;5090475;28;20459;-73
2023/10/06 00:56:25;;;;;;;11.23;9.40;;;12.80;99.90;;;;;;5079031;28;20535;-72
2023/10/06 00:58:51;;;;;;;10.80;9.50;;;12.80;99.90;;;;;;5073007;28;20948;-72
2023/10/06 01:01:17;;;;;;;11.37;8.70;;;12.80;99.90;;;;;;5090910;28;20404;-72
2023/10/06 01:03:49;;;;;;;9.03;8.10;;;12.80;99.90;;;;;;5085657;28;20802;-74
2023/10/06 01:06:23;;;;;;;11.33;9.50;;;12.80;99.90;;;;;;5079469;28;20178;-73
2023/10/06 01:08:55;;;;;;;11.03;9.07;;;12.80;99.90;;;;;;5086857;28;20407;-71
2023/10/06 01:11:26;;;;;;;13.90;9.37;;;12.90;99.90;;;;;;5079320;28;20813;-73
2023/10/06 01:13:55;;;;;;;12.73;9.33;;;12.90;99.90;;;;;;5086468;28;20459;-73
2023/10/06 01:16:37;;;;;;;11.10;8.83;;;12.90;99.90;;;;;;5089875;28;20473;-73
2023/10/06 01:19:14;;;;;;;14.43;9.20;;;12.90;99.90;;;;;;5087787;28;20597;-73
2023/10/06 01:21:47;;;;;;;10.20;7.90;;;13.00;99.90;;;;;;5090918;28;20792;-72
2023/10/06 01:24:24;;;;;;;9.63;8.30;;;13.00;99.90;;;;;;5090762;28;20418;-73
2023/10/06 01:26:54;;;;;;;17.40;9.10;;;13.10;99.90;;;;;;5077813;28;20458;-72
2023/10/06 01:29:28;;;;;;;12.70;8.97;;;13.10;99.90;;;;;;5083377;28;20435;-72
2023/10/06 01:31:54;;;;;;;12.03;9.33;;;13.10;99.90;;;;;;5083717;28;20408;-72
2023/10/06 01:34:20;;;;;;;16.77;10.20;;;13.10;99.90;;;;;;5082390;28;20471;-70
2023/10/06 01:36:51;;;;;;;11.77;9.80;;;13.10;99.90;;;;;;5091217;28;20209;-72
2023/10/06 01:39:18;;;;;;;18.37;12.07;;;13.10;99.90;;;;;;5088659;28;20271;-74
2023/10/06 01:41:47;;;;;;;13.40;10.23;;;13.20;99.90;;;;;;5079268;28;20417;-69
2023/10/06 01:44:15;;;;;;;10.30;8.33;;;13.20;99.90;;;;;;5081555;28;20518;-73
2023/10/06 01:46:41;;;;;;;15.30;11.10;;;13.20;99.90;;;;;;5087002;28;20448;-73
2023/10/06 01:49:14;;;;;;;15.43;11.90;;;13.20;99.90;;;;;;5083525;28;20407;-73
2023/10/06 01:51:40;;;;;;;14.93;10.70;;;13.20;99.90;;;;;;5094703;28;20422;-72
2023/10/06 01:54:13;;;;;;;12.70;10.77;;;13.30;99.90;;;;;;5093983;28;20455;-71
2023/10/06 01:56:42;;;;;;;16.70;12.00;;;13.30;99.90;;;;;;5090262;28;20563;-73
2023/10/06 01:59:17;;;;;;;14.60;11.10;;;13.30;99.90;;;;;;5091870;28;20403;-73
2023/10/06 02:01:43;;;;;;;15.63;11.43;;;13.30;99.90;;;;;;5083484;28;20440;-73
2023/10/06 02:04:17;;;;;;;16.60;11.93;;;13.40;99.90;;;;;;5084331;28;20440;-74
2023/10/06 02:06:45;;;;;;;19.27;12.07;;;13.40;99.90;;;;;;5086389;28;20507;-73
2023/10/06 02:09:20;;;;;;;13.63;10.53;;;13.40;99.90;;;;;;5094245;28;20455;-72
2023/10/06 02:11:49;;;;;;;14.27;11.27;;;13.40;99.90;;;;;;5090991;28;20415;-73
2023/10/06 02:14:18;;;;;;;15.00;11.93;;;13.40;99.90;;;;;;5067251;28;20455;-72
2023/10/06 02:16:45;;;;;;;15.13;12.17;;;13.40;99.90;;;;;;5085184;28;20447;-73
2023/10/06 02:19:11;;;;;;;13.37;10.50;;;13.40;99.90;;;;;;5093077;28;20490;-72
2023/10/06 02:21:49;;;;;;;13.27;11.53;;;13.40;99.90;;;;;;5089253;28;20959;-72
2023/10/06 02:24:17;;;;;;;13.30;10.97;;;13.40;99.90;;;;;;5096327;28;20411;-73
2023/10/06 02:26:50;;;;;;;13.20;11.80;;;13.40;99.90;;;;;;5087010;28;20859;-73
2023/10/06 02:29:22;;;;;;;16.63;12.43;;;13.40;99.90;;;;;;5086301;28;20438;-73
2023/10/06 02:31:52;;;;;;;13.20;10.80;;;13.40;99.90;;;;;;5080587;28;20923;-74
2023/10/06 02:34:39;;;;;;;17.87;12.23;;;13.40;99.90;;;;;;5079622;28;20458;-73
2023/10/06 02:37:04;;;;;;;14.73;10.77;;;13.40;99.90;;;;;;5085027;28;20475;-73
2023/10/06 02:39:34;;;;;;;15.00;12.27;;;13.40;99.90;;;;;;5089555;28;20516;-72
2023/10/06 02:42:02;;;;;;;15.17;10.70;;;13.40;99.90;;;;;;5094364;28;20937;-73
2023/10/06 02:44:29;;;;;;;16.03;11.50;;;13.40;99.90;;;;;;5094495;28;20719;-73
2023/10/06 02:46:55;;;;;;;18.13;11.53;;;13.40;99.90;;;;;;5090994;28;20468;-73
2023/10/06 02:50:07;;;;;;;16.50;12.00;;;13.50;99.90;;;;;;5093020;28;20439;-72
2023/10/06 02:52:36;;;;;;;16.30;11.80;;;13.50;99.90;;;;;;5071822;28;20429;-73
2023/10/06 02:57:28;;;;;;;13.10;11.80;;;13.50;99.90;;;;;;5090667;28;20441;-73
2023/10/06 03:00:16;;;;;;;15.13;11.07;;;13.50;99.90;;;;;;5080013;28;20210;-72
2023/10/06 03:02:42;;;;;;;19.83;11.10;;;13.50;99.90;;;;;;5085102;28;20516;-72
2023/10/06 03:05:15;;;;;;;12.60;11.30;;;13.50;99.90;;;;;;5085493;28;20515;-70
2023/10/06 03:07:44;;;;;;;13.60;12.20;;;13.50;99.90;;;;;;5079782;28;20198;-73
2023/10/06 03:10:11;;;;;;;21.00;11.30;;;13.50;99.90;;;;;;5079432;28;20784;-74
2023/10/06 03:12:39;;;;;;;18.00;12.27;;;13.50;99.90;;;;;;5080947;28;20413;-73
2023/10/06 03:15:29;;;;;;;18.43;13.43;;;13.60;99.90;;;;;;5084887;28;20804;-72
2023/10/06 03:17:58;;;;;;;14.43;12.07;;;13.60;99.90;;;;;;5088625;28;20456;-73
2023/10/06 03:20:27;;;;;;;13.73;12.00;;;13.60;99.90;;;;;;5080557;28;20435;-73
2023/10/06 03:22:55;;;;;;;13.33;11.93;;;13.60;99.90;;;;;;5079737;28;20411;-72
2023/10/06 03:25:22;;;;;;;18.40;13.90;;;13.60;99.90;;;;;;5081266;28;20416;-73
2023/10/06 03:27:52;;;;;;;15.10;12.03;;;13.60;99.90;;;;;;5079482;28;20424;-71
2023/10/06 03:30:19;;;;;;;16.37;14.10;;;13.70;99.90;;;;;;5075752;28;20414;-73
2023/10/06 03:32:49;;;;;;;17.40;14.10;;;13.60;99.90;;;;;;5082132;28;20458;-73
2023/10/06 03:35:23;;;;;;;18.60;13.47;;;13.60;99.90;;;;;;5083543;28;20780;-73
2023/10/06 03:37:52;;;;;;;21.27;12.83;;;13.60;99.90;;;;;;5087637;28;20500;-73
2023/10/06 03:40:24;;;;;;;17.80;13.50;;;13.70;99.90;;;;;;5067144;28;20465;-74
2023/10/06 03:42:54;;;;;;;18.87;13.50;;;13.70;99.90;;;;;;5088210;28;20764;-74
2023/10/06 03:45:31;;;;;;;15.57;13.83;;;13.60;99.90;;;;;;5086401;28;20428;-71
2023/10/06 03:48:10;;;;;;;19.90;14.30;;;13.60;99.90;;;;;;5090899;28;20455;-72
2023/10/06 03:50:46;;;;;;;19.60;13.17;;;13.70;99.90;;;;;;5089958;28;20408;-74
2023/10/06 03:53:14;;;;;;;19.60;15.13;;;13.70;99.90;;;;;;5073006;28;20467;-74
2023/10/06 03:55:47;;;;;;;15.43;12.77;;;13.60;99.90;;;;;;5073279;28;20405;-74
2023/10/06 03:58:15;;;;;;;19.80;14.70;;;13.70;99.90;;;;;;5073011;28;20436;-72
2023/10/06 04:00:47;;;;;;;16.47;12.33;;;13.70;99.90;;;;;;5079622;28;20432;-74
2023/10/06 04:03:19;;;;;;;15.20;13.60;;;13.70;99.90;;;;;;5086181;28;20492;-73
2023/10/06 04:05:49;;;;;;;16.13;13.83;;;13.70;99.90;;;;;;5080655;28;20415;-73
2023/10/06 04:08:21;;;;;;;19.43;14.83;;;13.70;99.90;;;;;;5075339;28;20526;-72
2023/10/06 04:11:00;;;;;;;16.07;14.37;;;13.70;99.90;;;;;;5075285;28;20413;-74
2023/10/06 04:13:26;;;;;;;17.30;14.80;;;13.70;99.90;;;;;;5075803;28;20459;-72
2023/10/06 04:15:52;;;;;;;18.03;15.20;;;13.80;99.90;;;;;;5086066;28;20420;-72
2023/10/06 04:18:22;;;;;;;17.20;14.37;;;13.80;99.90;;;;;;5087308;28;20766;-72
2023/10/06 04:20:49;;;;;;;15.10;13.60;;;13.80;99.90;;;;;;5083634;28;20435;-73
2023/10/06 04:23:19;;;;;;;16.67;14.43;;;13.70;99.90;;;;;;5089693;28;20849;-73
2023/10/06 04:25:47;;;;;;;19.80;15.27;;;13.70;99.90;;;;;;5093368;28;20438;-73
2023/10/06 04:28:14;;;;;;;15.80;14.00;;;13.70;99.90;;;;;;5082154;28;20468;-72
2023/10/06 04:30:42;;;;;;;24.50;14.83;;;13.70;99.90;;;;;;5083727;28;20546;-73
2023/10/06 04:33:10;;;;;;;16.47;14.60;;;13.70;99.90;;;;;;5074422;28;20499;-73
2023/10/06 04:35:42;;;;;;;16.40;13.70;;;13.70;99.90;;;;;;5072230;28;20413;-74
2023/10/06 04:38:12;;;;;;;19.70;14.67;;;13.70;99.90;;;;;;5072905;28;20464;-73
2023/10/06 04:40:38;;;;;;;17.70;13.37;;;13.70;99.90;;;;;;5076196;28;20420;-74
2023/10/06 04:43:04;;;;;;;15.97;14.23;;;13.60;99.90;;;;;;5089429;28;20480;-74
2023/10/06 04:45:31;;;;;;;19.13;14.63;;;13.60;99.90;;;;;;5083800;28;20911;-74
2023/10/06 04:48:00;;;;;;;19.00;15.37;;;13.60;99.90;;;;;;5076760;28;20293;-70
2023/10/06 04:50:30;;;;;;;19.83;15.10;;;13.60;99.90;;;;;;5086219;28;20446;-73
2023/10/06 04:52:56;;;;;;;16.90;13.33;;;13.50;99.90;;;;;;5078310;28;20445;-74
2023/10/06 04:55:22;;;;;;;17.00;15.33;;;13.50;99.90;;;;;;5085673;28;20513;-74
2023/10/06 04:57:48;;;;;;;20.03;15.40;;;13.50;99.90;;;;;;5091173;28;20444;-73
2023/10/06 05:00:27;;;;;;;16.97;14.27;;;13.50;99.90;;;;;;5079721;28;20405;-72
2023/10/06 05:02:52;;;;;;;20.00;15.90;;;13.50;99.90;;;;;;5090044;28;20512;-73
2023/10/06 05:05:20;;;;;;;22.13;15.47;;;13.50;99.90;;;;;;5076223;28;20444;-72
2023/10/06 05:07:55;;;;;;;19.10;17.10;;;13.40;99.90;;;;;;5074987;28;20224;-74
2023/10/06 05:10:21;;;;;;;19.57;16.60;;;13.40;99.90;;;;;;5083945;28;20825;-73
2023/10/06 05:12:50;;;;;;;20.07;16.80;;;13.40;99.90;;;;;;5079505;28;20604;-73
2023/10/06 05:15:31;;;;;;;23.53;19.17;;;13.30;99.90;;;;;;5079356;28;20411;-74
2023/10/06 05:17:58;;;;;;;23.23;18.10;;;13.30;99.90;;;;;;5076274;28;20436;-72
2023/10/06 05:20:29;;;;;;;20.10;17.30;;;13.30;99.90;;;;;;5074791;28;20418;-75
2023/10/06 05:23:01;;;;;;;22.40;15.77;;;13.30;99.90;;;;;;5076540;28;20432;-73
2023/10/06 05:25:29;;;;;;;23.17;18.10;;;13.30;99.90;;;;;;5083418;28;20435;-72
2023/10/06 05:27:57;;;;;;;25.83;16.87;;;13.30;99.90;;;;;;5083636;28;20459;-72
2023/10/06 05:30:23;;;;;;;25.13;18.10;;;13.20;99.90;;;;;;5079526;28;20874;-71
2023/10/06 05:32:48;;;;;;;21.00;17.90;;;13.20;99.90;;;;;;5087721;28;20479;-73
2023/10/06 05:35:14;;;;;;;27.20;19.33;;;13.30;99.90;;;;;;5083958;28;20178;-73
2023/10/06 05:37:42;;;;;;;26.77;18.33;;;13.30;99.90;;;;;;5086156;28;20234;-72
2023/10/06 05:40:12;;;;;;;21.13;18.60;;;13.30;99.90;;;;;;5077624;28;20182;-74
2023/10/06 05:42:40;;;;;;;23.33;18.67;;;13.30;99.90;;;;;;5087009;28;20510;-72
2023/10/06 05:45:15;;;;;;;21.80;18.27;;;13.30;99.90;;;;;;5087065;28;20428;-75
2023/10/06 05:47:48;;;;;;;21.13;17.30;;;13.30;99.90;;;;;;5080180;28;20985;-75
2023/10/06 05:50:28;;;;;;;22.23;18.23;;;13.30;99.90;;;;;;5085550;28;20428;-74
2023/10/06 05:53:01;;;;;;;22.07;17.50;;;13.30;99.90;;;;;;5067115;28;20456;-76
2023/10/06 05:55:38;;;;;;;20.63;15.70;;;13.30;99.90;;;;;;5086230;28;20458;-71
2023/10/06 05:58:09;;;;;;;21.00;17.20;;;13.30;99.90;;;;;;5086365;28;20431;-72
2023/10/06 06:00:35;;;;;;;21.90;16.93;;;13.30;99.90;;;;;;5078979;28;20428;-73
2023/10/06 06:03:11;;;;;;;26.50;18.17;;;13.30;99.90;;;;;;5078813;28;20900;-74
2023/10/06 06:05:42;;;;;;;29.80;18.90;;;13.30;99.90;;;;;;5076677;28;20407;-74
2023/10/06 06:08:09;;;;;;;24.00;16.83;;;13.40;99.90;;;;;;5084214;28;20500;-73
2023/10/06 06:10:40;;;;;;;21.10;16.20;;;13.50;99.90;;;;;;5086603;28;20822;-74
2023/10/06 06:13:05;;;;;;;21.77;16.70;;;13.40;99.90;;;;;;5084652;28;20969;-74
2023/10/06 06:15:31;;;;;;;21.67;17.30;;;13.50;99.90;;;;;;5084515;28;20486;-74
2023/10/06 06:17:58;;;;;;;22.77;17.87;;;13.60;99.90;;;;;;5091002;28;20268;-75
2023/10/06 06:20:25;;;;;;;21.70;16.37;;;13.60;99.90;;;;;;5074377;28;20926;-74
2023/10/06 06:23:12;;;;;;;18.80;15.30;;;13.70;99.90;;;;;;5077319;28;20515;-75
2023/10/06 06:25:38;;;;;;;16.53;14.90;;;13.70;99.90;;;;;;5088028;28;20432;-74
2023/10/06 06:28:05;;;;;;;26.47;14.80;;;13.90;99.90;;;;;;5086826;28;20578;-75
2023/10/06 06:30:33;;;;;;;15.47;13.97;;;14.10;99.90;;;;;;5090660;28;20771;-74
2023/10/06 06:33:01;;;;;;;14.90;12.90;;;14.40;99.90;;;;;;5084061;28;20807;-75
2023/10/06 06:35:28;;;;;;;14.40;11.00;;;14.80;99.90;;;;;;5094642;28;20431;-75
2023/10/06 06:38:01;;;;;;;19.50;12.83;;;14.90;99.90;;;;;;5086886;28;20446;-74
2023/10/06 06:40:30;;;;;;;12.13;10.30;;;15.10;99.90;;;;;;5065443;28;20426;-75
2023/10/06 06:42:57;;;;;;;13.33;11.60;;;14.90;99.90;;;;;;5092939;28;20420;-75
2023/10/06 06:45:24;;;;;;;12.57;9.97;;;14.80;99.90;;;;;;5082754;28;20409;-74
2023/10/06 06:47:51;;;;;;;12.60;10.73;;;14.70;99.90;;;;;;5079692;28;20439;-75
2023/10/06 06:50:17;;;;;;;11.90;10.53;;;14.60;99.90;;;;;;5079513;28;20444;-73
2023/10/06 06:52:43;;;;;;;13.43;11.70;;;14.50;99.90;;;;;;5079593;28;20423;-74
2023/10/06 06:55:13;;;;;;;13.40;12.00;;;14.60;99.90;;;;;;5081602;28;20432;-73
2023/10/06 06:57:49;;;;;;;12.70;11.60;;;14.60;99.90;;;;;;5088318;28;20479;-73
2023/10/06 07:00:17;;;;;;;11.43;10.23;;;14.60;99.90;;;;;;5094125;28;20443;-74
2023/10/06 07:02:47;;;;;;;17.10;11.10;;;14.60;99.90;;;;;;5083236;28;20432;-75
2023/10/06 07:05:13;;;;;;;12.07;10.87;;;14.80;99.90;;;;;;5075090;28;20428;-76
2023/10/06 07:07:42;;;;;;;12.90;11.50;;;14.90;99.90;;;;;;5085320;28;20437;-74
2023/10/06 07:10:29;;;;;;;16.60;10.90;;;15.00;99.90;;;;;;5092152;28;20524;-74
2023/10/06 07:12:54;;;;;;;16.83;10.80;;;15.00;99.90;;;;;;5080421;28;20469;-73
2023/10/06 07:15:21;;;;;;;13.90;11.40;;;15.00;99.90;;;;;;5082750;28;20414;-74
2023/10/06 07:17:55;;;;;;;14.13;10.47;;;15.10;99.90;;;;;;5079137;28;20200;-74
2023/10/06 07:20:23;;;;;;;18.63;10.03;;;15.10;99.90;;;;;;5082497;28;20488;-75
2023/10/06 07:22:53;;;;;;;18.10;10.93;;;15.20;99.90;;;;;;5091840;28;20423;-72
2023/10/06 07:25:20;;;;;;;12.37;10.00;;;15.10;99.90;;;;;;5093674;28;20421;-74
2023/10/06 07:27:48;;;;;;;13.03;11.53;;;15.20;99.90;;;;;;5083360;28;20442;-76
2023/10/06 07:30:15;;;;;;;19.30;9.90;;;15.10;99.90;;;;;;5084617;28;20430;-75
2023/10/06 07:32:43;;;;;;;10.60;9.57;;;15.10;99.90;;;;;;5084031;28;20436;-74
2023/10/06 07:35:14;;;;;;;11.40;9.33;;;15.10;99.90;;;;;;5091089;28;20484;-75
2023/10/06 07:37:43;;;;;;;15.13;9.70;;;15.40;99.90;;;;;;5087717;28;21042;-75
2023/10/06 07:40:14;;;;;;;14.50;8.33;;;15.60;99.90;;;;;;5084668;28;20458;-75
2023/10/06 07:42:41;;;;;;;10.67;8.60;;;15.70;99.90;;;;;;5078270;28;20486;-74
2023/10/06 07:45:08;;;;;;;9.70;8.70;;;15.60;99.90;;;;;;5076228;28;20441;-75
2023/10/06 07:47:36;;;;;;;8.73;7.80;;;15.60;99.90;;;;;;5082132;28;20413;-75
2023/10/06 07:50:05;;;;;;;8.43;7.73;;;16.00;99.90;;;;;;5079761;28;20940;-73
2023/10/06 07:52:35;;;;;;;11.17;7.07;;;16.20;99.90;;;;;;5078923;28;20466;-74
2023/10/06 07:55:05;;;;;;;12.13;7.73;;;16.10;99.90;;;;;;5085660;28;20485;-75
2023/10/06 07:57:32;;;;;;;8.83;7.67;;;16.00;99.90;;;;;;5083790;28;20524;-75
2023/10/06 08:00:06;;;;;;;8.00;7.07;;;16.20;99.90;;;;;;5078995;28;20424;-74
2023/10/06 08:02:39;;;;;;;12.93;7.07;;;16.20;99.90;;;;;;5078937;28;20414;-74
2023/10/06 08:05:11;;;;;;;9.57;6.30;;;16.30;99.90;;;;;;5082278;28;20770;-74
2023/10/06 08:07:40;;;;;;;8.93;7.60;;;16.40;99.90;;;;;;5080716;28;20421;-74
2023/10/06 08:10:07;;;;;;;9.90;7.07;;;16.20;99.90;;;;;;5077328;28;20440;-75
2023/10/06 08:12:33;;;;;;;8.20;6.50;;;16.40;99.90;;;;;;5082089;28;20440;-72
2023/10/06 08:15:01;;;;;;;7.20;5.83;;;16.80;99.90;;;;;;5088568;28;20438;-74
2023/10/06 08:17:27;;;;;;;8.50;7.70;;;16.90;99.90;;;;;;5066532;28;20491;-74
2023/10/06 08:19:54;;;;;;;8.30;7.20;;;16.70;99.90;;;;;;5079455;28;20428;-74
2023/10/06 08:22:22;;;;;;;9.30;7.33;;;16.70;99.90;;;;;;5086938;28;20425;-75
2023/10/06 08:24:47;;;;;;;8.83;6.00;;;16.60;99.90;;;;;;5082764;28;20443;-74
2023/10/06 08:27:20;;;;;;;10.40;6.53;;;16.80;99.90;;;;;;5079460;28;20444;-74
2023/10/06 08:29:46;;;;;;;8.90;6.40;;;16.80;99.90;;;;;;5082343;28;20530;-75
2023/10/06 08:32:12;;;;;;;8.80;7.03;;;16.60;99.90;;;;;;5080565;28;20436;-71
2023/10/06 08:34:39;;;;;;;14.13;6.97;;;17.30;99.90;;;;;;5086682;28;20460;-74
2023/10/06 08:37:11;;;;;;;6.93;5.83;;;17.50;99.90;;;;;;5084220;28;20237;-73
2023/10/06 08:39:40;;;;;;;10.80;5.40;;;17.90;99.90;;;;;;5083248;28;20991;-75
2023/10/06 08:42:12;;;;;;;6.57;5.37;;;17.70;99.90;;;;;;5084894;28;20431;-75
2023/10/06 08:44:41;;;;;;;8.47;7.00;;;17.10;99.90;;;;;;5089514;28;20470;-77
2023/10/06 08:47:12;;;;;;;6.10;5.40;;;17.00;99.90;;;;;;5075612;28;20466;-74
2023/10/06 08:49:40;;;;;;;7.70;6.40;;;17.20;99.90;;;;;;5090034;28;20921;-76
2023/10/06 08:52:12;;;;;;;10.47;5.57;;;17.30;99.90;;;;;;5087073;28;20409;-74
2023/10/06 08:54:39;;;;;;;6.87;5.30;;;17.80;99.90;;;;;;5076479;28;20831;-74
2023/10/06 08:57:04;;;;;;;5.40;4.57;;;17.80;99.90;;;;;;5087061;28;20493;-74
2023/10/06 08:59:35;;;;;;;5.53;4.47;;;17.40;99.90;;;;;;5084704;28;20515;-75
2023/10/06 09:02:01;;;;;;;5.93;5.33;;;17.50;99.90;;;;;;5079134;28;20171;-74
2023/10/06 09:04:37;;;;;;;6.43;5.50;;;17.10;99.90;;;;;;5078680;28;20444;-74
2023/10/06 09:07:12;;;;;;;7.30;5.70;;;16.90;99.90;;;;;;5052725;28;20451;-74
2023/10/06 09:09:40;;;;;;;8.83;5.10;;;17.20;99.90;;;;;;5062912;28;20545;-74
2023/10/06 09:12:07;;;;;;;7.80;5.10;;;17.40;99.90;;;;;;5075850;28;20408;-74
2023/10/06 09:14:33;;;;;;;6.20;5.47;;;17.40;99.90;;;;;;5082234;28;20964;-74
2023/10/06 09:17:01;;;;;;;6.43;5.80;;;17.40;99.90;;;;;;5074839;28;20442;-73
2023/10/06 09:19:48;;;;;;;6.07;5.43;;;17.40;99.90;;;;;;5085183;28;20901;-71
2023/10/06 09:22:14;;;;;;;5.17;4.77;;;17.40;99.90;;;;;;5080733;28;20439;-74
2023/10/06 09:24:39;;;;;;;8.67;5.80;;;17.30;99.90;;;;;;5084277;28;20417;-75
2023/10/06 09:27:21;;;;;;;5.20;4.70;;;17.40;99.90;;;;;;5085475;28;20455;-74
2023/10/06 09:29:47;;;;;;;6.30;4.80;;;17.10;99.90;;;;;;5083738;28;20177;-76
2023/10/06 09:32:22;;;;;;;5.60;4.60;;;17.20;99.90;;;;;;5084430;28;20515;-75
2023/10/06 09:34:53;;;;;;;14.23;4.17;;;17.30;99.90;;;;;;5091397;28;20200;-75
2023/10/06 09:37:20;;;;;;;6.63;4.20;;;17.20;99.90;;;;;;5086734;28;20473;-74
2023/10/06 09:39:59;;;;;;;4.67;3.63;;;17.40;99.90;;;;;;5070123;28;20470;-76
2023/10/06 09:42:31;;;;;;;4.40;4.00;;;17.50;99.90;;;;;;5085469;28;20409;-74
2023/10/06 09:45:15;;;;;;;8.60;4.00;;;17.70;99.90;;;;;;5070887;28;20406;-75
2023/10/06 09:47:48;;;;;;;9.27;4.67;;;17.50;99.90;;;;;;5082743;28;20491;-74
2023/10/06 09:50:15;;;;;;;5.10;3.97;;;17.50;99.90;;;;;;5081414;28;20414;-74
2023/10/06 09:52:44;;;;;;;3.23;2.90;;;17.50;99.90;;;;;;5091272;28;20419;-74
2023/10/06 09:55:09;;;;;;;5.80;3.30;;;17.70;99.90;;;;;;5086046;28;20830;-75
2023/10/06 09:57:35;;;;;;;4.70;4.00;;;17.80;99.90;;;;;;5082020;28;20427;-75
2023/10/06 10:00:01;;;;;;;4.70;3.50;;;17.90;99.90;;;;;;5079944;28;20171;-75
2023/10/06 10:02:29;;;;;;;5.20;3.10;;;17.90;99.90;;;;;;5091439;28;20409;-74
2023/10/06 10:04:59;;;;;;;7.40;3.90;;;17.90;99.90;;;;;;5070023;28;20189;-73
2023/10/06 10:07:28;;;;;;;4.40;3.10;;;17.80;99.90;;;;;;5084013;28;20454;-74
2023/10/06 10:09:55;;;;;;;4.30;2.70;;;18.00;99.90;;;;;;5087509;28;20497;-74
2023/10/06 10:12:37;;;;;;;6.47;3.27;;;17.80;99.90;;;;;;5078382;28;20437;-75
2023/10/06 10:15:21;;;;;;;8.90;3.70;;;17.90;99.90;;;;;;5084110;28;20450;-74
2023/10/06 10:18:04;;;;;;;5.13;3.40;;;18.10;99.90;;;;;;5091099;28;20426;-73
2023/10/06 10:20:32;;;;;;;4.20;3.17;;;18.00;99.90;;;;;;5088423;28;20432;-74
2023/10/06 10:23:00;;;;;;;4.83;3.10;;;18.20;99.90;;;;;;5078135;28;20936;-74
2023/10/06 10:25:29;;;;;;;4.53;2.70;;;18.20;99.90;;;;;;5083824;28;20449;-75
2023/10/06 10:28:17;;;;;;;3.07;2.77;;;18.10;99.90;;;;;;5087398;28;20483;-74
2023/10/06 10:31:01;;;;;;;5.80;2.53;;;17.80;99.90;;;;;;5086534;28;20424;-75
2023/10/06 10:33:33;;;;;;;6.97;4.17;;;18.10;99.90;;;;;;5086247;28;20460;-75
2023/10/06 10:36:19;;;;;;;3.80;2.80;;;17.90;99.90;;;;;;5079322;28;20807;-75
2023/10/06 10:38:55;;;;;;;4.33;2.73;;;17.80;99.90;;;;;;5076304;28;20952;-75
2023/10/06 10:41:26;;;;;;;3.87;2.40;;;17.90;99.90;;;;;;5086885;28;20489;-75
2023/10/06 10:43:51;;;;;;;5.20;2.70;;;18.00;99.90;;;;;;5090311;28;20502;-75
2023/10/06 10:46:38;;;;;;;4.30;2.63;;;18.10;99.90;;;;;;5087404;28;20519;-73
2023/10/06 10:49:08;;;;;;;4.00;2.97;;;18.00;99.90;;;;;;5085943;28;20408;-75
2023/10/06 10:51:53;;;;;;;8.80;2.90;;;17.90;99.90;;;;;;5084779;28;21023;-72
2023/10/06 10:54:21;;;;;;;3.90;3.13;;;17.80;99.90;;;;;;5090621;28;20544;-76
2023/10/06 10:56:51;;;;;;;4.87;3.20;;;17.70;99.90;;;;;;5088882;28;20531;-75
2023/10/06 10:59:18;;;;;;;3.57;3.00;;;17.80;99.90;;;;;;5084376;28;20505;-73
2023/10/06 11:01:48;;;;;;;3.60;2.40;;;17.80;99.90;;;;;;5089196;28;20478;-75
2023/10/06 11:04:48;;;;;;;6.67;2.40;;;17.80;99.90;;;;;;5084205;28;20416;-75
2023/10/06 11:07:11;;;;;;;3.30;2.60;;;17.90;99.90;;;;;;5088371;28;20431;-74
2023/10/06 11:09:41;;;;;;;3.20;2.50;;;18.00;99.90;;;;;;5092331;28;20481;-74
2023/10/06 11:12:16;;;;;;;6.40;2.70;;;18.20;99.90;;;;;;5077102;28;20953;-74
2023/10/06 11:14:41;;;;;;;5.53;2.50;;;17.90;99.90;;;;;;5086094;28;20459;-74
2023/10/06 11:17:07;;;;;;;4.17;2.50;;;18.10;99.90;;;;;;5066360;28;20452;-74
2023/10/06 11:19:36;;;;;;;6.20;2.50;;;18.10;99.90;;;;;;5079860;28;20170;-74
2023/10/06 11:22:13;;;;;;;5.20;2.53;;;18.10;99.90;;;;;;5082291;28;20492;-75
2023/10/06 11:24:39;;;;;;;3.23;2.50;;;18.40;99.90;;;;;;5084403;28;20442;-73
2023/10/06 11:27:14;;;;;;;4.67;2.90;;;18.40;99.90;;;;;;5071941;28;20442;-74
2023/10/06 11:29:40;;;;;;;5.07;2.23;;;18.40;99.90;;;;;;5093755;28;20475;-74
2023/10/06 11:32:07;;;;;;;4.40;3.00;;;18.50;99.90;;;;;;5093643;28;20407;-75
2023/10/06 11:34:34;;;;;;;3.10;2.70;;;18.50;99.90;;;;;;5092131;28;20270;-75
2023/10/06 11:37:01;;;;;;;3.83;2.23;;;18.60;99.90;;;;;;5083861;28;20825;-74
2023/10/06 11:39:29;;;;;;;4.33;3.30;;;18.60;99.90;;;;;;5088899;28;20507;-74
2023/10/06 11:42:24;;;;;;;4.93;2.03;;;18.60;99.90;;;;;;5089193;28;20442;-77
2023/10/06 11:44:53;;;;;;;5.13;2.67;;;18.50;99.90;;;;;;5072154;28;22079;-75
2023/10/06 11:47:21;;;;;;;2.63;2.20;;;18.60;99.90;;;;;;5082226;28;20426;-75
2023/10/06 11:49:54;;;;;;;3.40;2.10;;;18.60;99.90;;;;;;5090058;28;20421;-76
2023/10/06 11:52:20;;;;;;;4.73;2.47;;;18.60;99.90;;;;;;5086410;28;20430;-75
2023/10/06 11:54:49;;;;;;;2.30;2.10;;;18.70;99.90;;;;;;5083621;28;20820;-75
2023/10/06 11:57:15;;;;;;;5.77;3.40;;;18.90;99.90;;;;;;5086295;28;20443;-72
2023/10/06 11:59:51;;;;;;;3.03;2.70;;;18.90;99.90;;;;;;5087911;28;20424;-75
2023/10/06 12:02:17;;;;;;;3.57;2.57;;;18.70;99.90;;;;;;5083546;28;20427;-75
2023/10/06 12:04:43;;;;;;;8.73;2.70;;;18.90;99.90;;;;;;5087539;28;20423;-76
2023/10/06 12:07:22;;;;;;;3.27;2.37;;;18.90;99.90;;;;;;5087700;28;20434;-76
2023/10/06 12:09:48;;;;;;;4.87;3.40;;;18.70;99.90;;;;;;5089056;28;20478;-74
2023/10/06 12:12:17;;;;;;;4.90;2.67;;;18.70;99.90;;;;;;5082320;28;20414;-76
2023/10/06 12:14:44;;;;;;;3.70;2.30;;;18.70;99.90;;;;;;5086151;28;20489;-75
2023/10/06 12:17:13;;;;;;;5.13;3.27;;;18.70;99.90;;;;;;5083017;28;20464;-76
2023/10/06 12:19:42;;;;;;;6.33;2.53;;;18.50;99.90;;;;;;5082616;28;20411;-76
2023/10/06 12:22:07;;;;;;;2.70;2.47;;;18.50;99.90;;;;;;5072372;28;20431;-76
2023/10/06 12:24:33;;;;;;;3.40;1.90;;;18.50;99.90;;;;;;5089302;28;20788;-76
2023/10/06 12:26:59;;;;;;;4.57;2.13;;;18.60;99.90;;;;;;5088430;28;20455;-73
2023/10/06 12:29:24;;;;;;;5.23;2.70;;;18.70;99.90;;;;;;5086625;28;20250;-75
2023/10/06 12:31:50;;;;;;;8.67;2.20;;;18.80;99.90;;;;;;5091278;28;20164;-75
2023/10/06 12:34:15;;;;;;;3.83;2.50;;;18.80;99.90;;;;;;5092683;28;20194;-75
2023/10/06 12:36:47;;;;;;;3.30;2.40;;;18.50;99.90;;;;;;5082504;28;20242;-75
2023/10/06 12:39:30;;;;;;;6.93;2.83;;;18.60;99.90;;;;;;5084056;28;20179;-74
2023/10/06 12:41:59;;;;;;;3.50;2.77;;;18.60;99.90;;;;;;5081545;28;20474;-74
2023/10/06 12:44:29;;;;;;;7.00;2.40;;;18.50;99.90;;;;;;5084249;28;20424;-72
2023/10/06 12:46:55;;;;;;;4.30;2.20;;;18.40;99.90;;;;;;5083534;28;20450;-74
2023/10/06 12:49:23;;;;;;;3.50;2.20;;;18.30;99.90;;;;;;5075225;28;20834;-75
2023/10/06 12:51:51;;;;;;;4.00;2.20;;;18.40;99.90;;;;;;5092152;28;20428;-74
2023/10/06 12:54:16;;;;;;;3.37;1.93;;;18.50;99.90;;;;;;5084793;28;20842;-73